KSLI

Los Alamitos AAF Airport

Los Alamitos, California, USA
METAR KSLI 180058Z 22009KT 10SM FEW040 FEW150 28/20 A2997 RMK AO2A SLP152 T02820202
Observed Flight Rules
Aug-18 @ 00:58 UTC (2 hours ago) Visual Flight Rules
Wind Visibility Clouds
220° at 9 knots 10 miles
  • Few at 4,000' AGL
  • Few at 15,000' AGL
Temperatures Readings
Current 28°C / 82°F
Dewpoint 20°C / 68°F
Humidity 62%
Altimeter 29.97" Hg
Pressure 1015.2 hPa
Elevation 11
METAR KSLI 180058Z 22009KT 10SM FEW040 FEW150 28/20 A2997 RMK AO2A SLP152 T02820202
Observed Flight Rules
Aug-18 @ 00:58 UTC
(2 hours ago)
VFR
Wind Visibility
220° at 9 knots 10 miles
Clouds
  • Few at 4,000' AGL
  • Few at 15,000' AGL
Temperature Dewpoint
28°C / 82°F 20°C / 68°F
Humidity Altimeter Pressure
62% 29.97" Hg 1015.2 hPa